首页
METAR-TAF:

METAR-TAF

机场 :

凯斯门特机场

都柏林, 爱尔兰

纬度: 53-18-06N, 经度: 6-27-04W, 海拔: 97米

当前天气观测

该预报发布于30分钟前的10:30 UTC
风速6节,风向东转东北,在北转东北之间变化
温度 16°C
湿度 94%
气压 1016 hPa
能見度: 9000
阴天层高于500英尺

METAR: EIME 141030Z 07006KT 030V100 9000 OVC005 16/15 Q1016

时间: 12:00 (11:00 UTC)

预报

该预报发布于1小时和23分钟前的09:37 UTC
预报有效从14日的 09点(UTC)到 14日的 18点(UTC)
风速8节,风向东转东北
能見度: 6000
多云层高于400英尺
小毛毛雨
成为
从 14日的 09点(UTC)到 14日的 11点(UTC)
能见度10公里或以上
多云层高于1300英尺
成为
从 14日的 11点(UTC)到 14日的 13点(UTC)
少量云层高于1300英尺
多云层高于2000英尺

TAF: EIME 140937Z 1409/1418 07008KT 6000 -DZ BKN004 BECMG 1409/1411 9999 NSW BKN013 BECMG 1411/1413 FEW013 BKN020

超过4000个机场的气象观测和天气预报(METAR&TAF报告)。

可查询的气象台以黄色和红色小点在地图上表示。

将鼠标移到小点上方,可查看气象台名称。

然后点击查看天气观测和预报。

如需切换地图:点击带黑十字的绿色按钮放大地图;点击带横线的绿色按钮缩小地图;或者点击绿色箭头查看邻近地区的地图。


METAR-TAF: